createdAt,value
2018-05-27T00:01:32.631Z,73.40
2018-05-27T00:04:00.264Z,72.30
2018-05-27T00:06:28.708Z,72.50
2018-05-27T00:08:56.337Z,73.50
2018-05-27T00:11:24.774Z,71.70
2018-05-27T00:13:52.474Z,71.70
2018-05-27T00:16:20.133Z,71.40
2018-05-27T00:18:47.779Z,73.60
2018-05-27T00:21:15.463Z,74.10
2018-05-27T00:23:43.106Z,72.40
2018-05-27T00:26:10.800Z,70.80
2018-05-27T00:28:38.483Z,73.30
2018-05-27T00:31:06.160Z,74.10
2018-05-27T00:33:33.796Z,74.20
2018-05-27T00:36:02.225Z,75.90
2018-05-27T00:38:29.869Z,75.90
2018-05-27T00:40:57.532Z,74.70
2018-05-27T00:43:25.941Z,72.30
2018-05-27T00:45:53.628Z,72.30
2018-05-27T00:48:21.279Z,73.50
2018-05-27T00:50:48.908Z,72.10
2018-05-27T00:53:16.589Z,72.60
2018-05-27T00:55:44.996Z,71.00
2018-05-27T00:58:13.449Z,71.60
2018-05-27T01:00:41.133Z,71.70
2018-05-27T01:03:08.845Z,74.10
2018-05-27T01:05:37.249Z,76.40
2018-05-27T01:08:04.960Z,76.40
2018-05-27T01:10:32.600Z,75.80
2018-05-27T01:13:00.275Z,76.60
2018-05-27T01:15:27.932Z,74.10
2018-05-27T01:17:55.618Z,74.30
2018-05-27T01:20:24.034Z,74.00
2018-05-27T01:22:51.695Z,73.90
2018-05-27T01:25:19.341Z,72.40
2018-05-27T01:27:47.805Z,73.10
2018-05-27T01:30:15.428Z,73.10
2018-05-27T01:32:43.069Z,72.70
2018-05-27T01:35:10.764Z,72.30
2018-05-27T01:37:39.199Z,72.00
2018-05-27T01:40:06.901Z,71.90
2018-05-27T01:42:34.541Z,71.90
2018-05-27T01:45:02.216Z,71.20
2018-05-27T01:47:29.853Z,71.40
2018-05-27T01:49:57.520Z,72.50
2018-05-27T01:52:25.921Z,73.20
2018-05-27T01:54:53.600Z,73.00
2018-05-27T01:57:21.256Z,73.00
2018-05-27T01:59:49.705Z,74.20
2018-05-27T02:02:17.344Z,74.20
2018-05-27T02:04:45.016Z,74.20
2018-05-27T02:07:12.687Z,73.90
2018-05-27T02:09:40.385Z,74.70
2018-05-27T02:12:08.059Z,77.10
2018-05-27T02:14:35.717Z,76.80
2018-05-27T02:17:03.400Z,75.40
2018-05-27T02:19:31.037Z,74.80
2018-05-27T02:21:59.468Z,75.60
2018-05-27T02:24:27.109Z,75.70
2018-05-27T02:26:54.781Z,75.40
2018-05-27T02:29:23.206Z,74.70
2018-05-27T02:31:50.881Z,74.60
2018-05-27T02:34:18.512Z,74.50
2018-05-27T02:36:46.944Z,74.60
2018-05-27T02:39:14.593Z,74.50
2018-05-27T02:41:42.276Z,74.50
2018-05-27T02:44:09.915Z,74.50
2018-05-27T02:46:38.376Z,74.70
2018-05-27T02:49:06.017Z,74.70
2018-05-27T02:51:33.723Z,74.50
2018-05-27T02:54:01.405Z,75.20
2018-05-27T02:56:29.097Z,75.30
2018-05-27T02:58:56.730Z,75.40
2018-05-27T03:01:24.365Z,75.60
2018-05-27T03:03:52.049Z,76.10
2018-05-27T03:06:19.692Z,76.30
2018-05-27T03:08:47.373Z,76.30
2018-05-27T03:11:15.013Z,75.00
2018-05-27T03:13:42.748Z,76.30
2018-05-27T03:16:10.419Z,77.10
2018-05-27T03:18:38.128Z,75.60
2018-05-27T03:21:05.761Z,77.60
2018-05-27T03:23:34.192Z,77.80
2018-05-27T03:26:01.821Z,77.80
2018-05-27T03:28:30.257Z,78.40
2018-05-27T03:30:57.901Z,78.20
2018-05-27T03:33:25.572Z,78.90
2018-05-27T03:35:53.221Z,78.90
2018-05-27T03:38:20.897Z,78.20
2018-05-27T03:40:49.303Z,77.60
2018-05-27T03:43:16.984Z,77.60
2018-05-27T03:45:44.641Z,77.40
2018-05-27T03:48:13.094Z,75.90
2018-05-27T03:50:40.757Z,75.90
2018-05-27T03:53:08.461Z,77.70
2018-05-27T03:55:36.107Z,77.80
2018-05-27T03:58:03.752Z,76.90
2018-05-27T04:00:31.425Z,76.80
2018-05-27T04:02:59.069Z,78.40
2018-05-27T04:05:39.173Z,78.90
2018-05-27T04:08:18.637Z,78.90
2018-05-27T04:10:46.273Z,78.90
2018-05-27T04:13:14.676Z,77.80
2018-05-27T04:15:42.366Z,77.80
2018-05-27T04:18:10.035Z,77.60
2018-05-27T04:20:37.785Z,77.10
2018-05-27T04:23:06.228Z,76.40
2018-05-27T04:25:33.917Z,76.40
2018-05-27T04:28:01.548Z,76.40
2018-05-27T04:30:29.229Z,76.30
2018-05-27T04:32:56.872Z,75.60
2018-05-27T04:35:25.309Z,77.00
2018-05-27T04:37:52.947Z,77.00
2018-05-27T04:40:20.616Z,76.00
2018-05-27T04:42:49.044Z,71.50
2018-05-27T04:45:16.722Z,71.40
2018-05-27T04:47:44.355Z,71.60
2018-05-27T04:50:12.053Z,71.40
2018-05-27T04:52:39.778Z,68.50
2018-05-27T04:55:07.457Z,68.60
2018-05-27T04:57:35.865Z,68.00
2018-05-27T05:00:03.576Z,68.00
2018-05-27T05:02:31.212Z,70.30
2018-05-27T05:04:58.872Z,67.20
2018-05-27T05:07:26.540Z,65.70
2018-05-27T05:09:54.189Z,64.40
2018-05-27T05:12:21.872Z,66.60
2018-05-27T05:14:49.563Z,65.30
2018-05-27T05:17:17.233Z,65.00
2018-05-27T05:19:44.864Z,66.70
2018-05-27T05:22:12.598Z,71.10
2018-05-27T05:24:41.009Z,76.50
2018-05-27T05:27:08.716Z,76.60
2018-05-27T05:29:36.373Z,77.40
2018-05-27T05:32:04.049Z,76.20
2018-05-27T05:34:31.685Z,76.40
2018-05-27T05:36:59.360Z,77.90
2018-05-27T05:39:27.757Z,77.60
2018-05-27T05:41:56.183Z,79.80
2018-05-27T05:44:23.817Z,79.90
2018-05-27T05:46:52.245Z,75.70
2018-05-27T05:49:19.895Z,75.70
2018-05-27T05:51:47.584Z,74.50
2018-05-27T05:54:15.247Z,77.20
2018-05-27T05:56:42.957Z,79.10
2018-05-27T05:59:10.614Z,78.80
2018-05-27T06:01:38.392Z,77.60
2018-05-27T06:04:06.070Z,78.10
2018-05-27T06:06:33.740Z,79.10
2018-05-27T06:09:01.405Z,79.60
2018-05-27T06:11:29.038Z,78.80
2018-05-27T06:13:57.473Z,78.80
2018-05-27T06:16:25.099Z,78.00
2018-05-27T06:18:52.761Z,78.00
2018-05-27T06:21:20.398Z,74.20
2018-05-27T06:23:48.063Z,70.70
2018-05-27T06:26:15.716Z,68.70
2018-05-27T06:28:43.425Z,65.20
2018-05-27T06:31:11.080Z,61.00
2018-05-27T06:33:38.795Z,61.60
2018-05-27T06:36:06.485Z,63.60
2018-05-27T06:38:34.152Z,65.20
2018-05-27T06:41:01.798Z,64.10
2018-05-27T06:43:29.472Z,60.70
2018-05-27T06:45:57.102Z,59.70
2018-05-27T06:48:25.557Z,59.70
2018-05-27T06:50:53.189Z,59.70
2018-05-27T06:53:20.824Z,58.40
2018-05-27T06:55:48.521Z,59.30
2018-05-27T06:58:16.173Z,59.80
2018-05-27T07:00:43.852Z,58.70
2018-05-27T07:03:12.281Z,71.30
2018-05-27T07:05:39.989Z,71.20
2018-05-27T07:08:07.655Z,69.70
2018-05-27T07:10:35.328Z,72.10
2018-05-27T07:13:02.960Z,76.10
2018-05-27T07:15:30.676Z,74.50
2018-05-27T07:17:58.321Z,72.30
2018-05-27T07:20:25.993Z,72.50
2018-05-27T07:22:53.675Z,73.90
2018-05-27T07:25:21.357Z,72.60
2018-05-27T07:27:49.014Z,74.30
2018-05-27T07:30:16.684Z,73.90
2018-05-27T07:32:44.420Z,75.10
2018-05-27T07:35:12.133Z,77.80
2018-05-27T07:37:39.796Z,74.80
2018-05-27T07:40:08.277Z,73.80
2018-05-27T07:42:36.719Z,72.30
2018-05-27T07:45:04.413Z,72.30
2018-05-27T07:47:32.081Z,72.60
2018-05-27T07:49:59.791Z,64.70
2018-05-27T07:52:28.286Z,65.80
2018-05-27T07:54:55.912Z,65.80
2018-05-27T07:57:23.589Z,65.40
2018-05-27T07:59:51.211Z,63.20
2018-05-27T08:02:19.648Z,59.00
2018-05-27T08:04:47.293Z,59.00
2018-05-27T08:07:15.009Z,61.10
2018-05-27T08:09:42.645Z,59.10
2018-05-27T08:12:10.341Z,57.50
2018-05-27T08:14:38.002Z,59.20
2018-05-27T08:17:05.688Z,61.50
2018-05-27T08:19:33.314Z,60.40
2018-05-27T08:22:01.752Z,64.70
2018-05-27T08:24:29.476Z,64.70
2018-05-27T08:26:57.956Z,62.60
2018-05-27T08:29:25.603Z,62.50
2018-05-27T08:31:53.285Z,61.90
2018-05-27T08:34:20.917Z,60.80
2018-05-27T08:36:48.589Z,61.40
2018-05-27T08:39:16.220Z,61.60
2018-05-27T08:41:43.957Z,57.90
2018-05-27T08:44:11.700Z,58.80
2018-05-27T08:46:39.357Z,56.60
2018-05-27T08:49:07.814Z,56.70
2018-05-27T08:51:35.456Z,56.60
2018-05-27T08:54:03.130Z,56.00
2018-05-27T08:56:30.872Z,55.70
2018-05-27T08:58:58.641Z,56.40
2018-05-27T09:01:26.313Z,54.60
2018-05-27T09:03:54.017Z,53.40
2018-05-27T09:06:21.665Z,53.50
2018-05-27T09:08:49.348Z,54.40
2018-05-27T09:11:17.748Z,55.50
2018-05-27T09:13:46.185Z,55.80
2018-05-27T09:16:13.916Z,55.80
2018-05-27T09:18:42.596Z,57.30
2018-05-27T09:21:11.109Z,55.80
2018-05-27T09:23:39.676Z,54.60
2018-05-27T09:26:08.129Z,50.90
2018-05-27T09:28:35.814Z,50.90
2018-05-27T09:31:03.480Z,53.10
2018-05-27T09:33:31.172Z,54.50
2018-05-27T09:35:58.862Z,55.50
2018-05-27T09:38:26.497Z,54.60
2018-05-27T09:40:54.314Z,53.60
2018-05-27T09:43:22.037Z,53.00
2018-05-27T09:45:50.279Z,54.00
2018-05-27T09:48:18.904Z,52.40
2018-05-27T09:50:46.585Z,52.40
2018-05-27T09:53:14.308Z,54.50
2018-05-27T09:55:41.994Z,54.50
2018-05-27T09:58:09.687Z,52.50
2018-05-27T10:00:38.125Z,53.80
2018-05-27T10:03:16.225Z,53.70
2018-05-27T10:05:44.669Z,51.90
2018-05-27T10:08:12.348Z,51.60
2018-05-27T10:10:40.013Z,50.20
2018-05-27T10:13:07.661Z,50.10
2018-05-27T10:15:36.174Z,52.30
2018-05-27T10:18:03.931Z,52.30
2018-05-27T10:20:31.661Z,50.60
2018-05-27T10:22:59.370Z,51.30
2018-05-27T10:25:27.819Z,50.20
2018-05-27T10:27:55.452Z,50.30
2018-05-27T10:30:26.659Z,49.30
2018-05-27T10:32:54.453Z,47.90
2018-05-27T10:35:22.148Z,49.50
2018-05-27T10:37:49.845Z,49.80
2018-05-27T10:40:17.528Z,50.50
2018-05-27T10:42:45.222Z,48.80
2018-05-27T10:45:12.861Z,47.10
2018-05-27T10:47:40.585Z,45.20
2018-05-27T10:50:09.025Z,48.10
2018-05-27T10:52:36.701Z,47.90
2018-05-27T10:55:04.364Z,48.80
2018-05-27T10:57:32.041Z,47.20
2018-05-27T10:59:59.695Z,46.60
2018-05-27T11:02:27.376Z,47.50
2018-05-27T11:04:58.071Z,47.90
2018-05-27T11:07:25.753Z,48.40
2018-05-27T11:09:53.436Z,47.70
2018-05-27T11:12:21.157Z,48.00
2018-05-27T11:14:49.612Z,48.30
2018-05-27T11:17:17.323Z,48.40
2018-05-27T11:19:44.960Z,48.40
2018-05-27T11:22:12.624Z,51.10
2018-05-27T11:24:40.309Z,51.50
2018-05-27T11:27:08.009Z,49.80
2018-05-27T11:29:35.640Z,49.70
2018-05-27T11:32:03.284Z,49.60
2018-05-27T11:34:31.732Z,51.20
2018-05-27T11:36:59.422Z,51.20
2018-05-27T11:39:27.070Z,49.80
2018-05-27T11:41:54.713Z,50.50
2018-05-27T11:44:22.376Z,49.30
2018-05-27T11:46:50.802Z,51.50
2018-05-27T11:49:18.485Z,51.40
2018-05-27T11:51:46.123Z,53.50
2018-05-27T11:54:13.840Z,57.40
2018-05-27T11:56:41.483Z,60.00
2018-05-27T11:59:09.152Z,61.90
2018-05-27T12:01:36.797Z,66.00
2018-05-27T12:04:04.494Z,66.10
2018-05-27T12:06:32.226Z,73.30
2018-05-27T12:09:00.019Z,80.80
2018-05-27T12:11:28.616Z,84.30
2018-05-27T12:13:57.034Z,85.50
2018-05-27T12:16:24.710Z,85.90
2018-05-27T12:18:52.351Z,92.30
2018-05-27T12:21:20.034Z,96.30
2018-05-27T12:23:48.463Z,95.90
2018-05-27T12:26:16.149Z,96.10
2018-05-27T12:28:43.798Z,95.60
2018-05-27T12:31:11.473Z,98.90
2018-05-27T12:33:39.111Z,95.90
2018-05-27T12:36:06.785Z,93.80
2018-05-27T12:38:34.457Z,94.20
2018-05-27T12:41:02.176Z,93.90
2018-05-27T12:43:29.865Z,93.80
2018-05-27T12:45:57.552Z,92.50
2018-05-27T12:48:25.188Z,91.40
2018-05-27T12:50:52.855Z,90.70
2018-05-27T12:53:20.497Z,87.90
2018-05-27T12:55:48.194Z,85.10
2018-05-27T12:58:16.592Z,84.20
2018-05-27T13:00:44.268Z,84.20
2018-05-27T13:03:12.665Z,77.80
2018-05-27T13:05:40.288Z,77.80
2018-05-27T13:08:07.964Z,82.30
2018-05-27T13:10:35.588Z,80.10
2018-05-27T13:13:03.308Z,78.30
2018-05-27T13:15:30.964Z,78.40
2018-05-27T13:17:58.704Z,81.70
2018-05-27T13:20:26.341Z,81.70
2018-05-27T13:22:54.020Z,81.10
2018-05-27T13:25:21.804Z,83.00
2018-05-27T13:27:49.497Z,81.50
2018-05-27T13:30:17.908Z,82.00
2018-05-27T13:32:45.576Z,82.00
2018-05-27T13:35:13.204Z,82.00
2018-05-27T13:37:40.876Z,80.70
2018-05-27T13:40:08.508Z,82.70
2018-05-27T13:42:36.189Z,85.40
2018-05-27T13:45:03.938Z,86.60
2018-05-27T13:47:31.625Z,87.30
2018-05-27T13:49:59.297Z,85.30
2018-05-27T13:52:26.928Z,83.10
2018-05-27T13:54:54.604Z,81.90
2018-05-27T13:57:22.237Z,84.20
2018-05-27T13:59:49.921Z,85.00
2018-05-27T14:02:17.626Z,84.10
2018-05-27T14:04:45.333Z,84.80
2018-05-27T14:07:12.974Z,83.70
2018-05-27T14:09:40.647Z,81.50
2018-05-27T14:12:08.291Z,82.10
2018-05-27T14:14:35.956Z,80.40
2018-05-27T14:17:03.633Z,79.80
2018-05-27T14:19:31.377Z,80.10
2018-05-27T14:21:59.030Z,80.10
2018-05-27T14:24:27.478Z,76.90
2018-05-27T14:26:55.120Z,76.90
2018-05-27T14:29:22.780Z,76.40
2018-05-27T14:31:51.185Z,78.20
2018-05-27T14:34:18.868Z,78.20
2018-05-27T14:36:46.496Z,75.20
2018-05-27T14:39:14.141Z,75.80
2018-05-27T14:41:41.819Z,74.80
2018-05-27T14:44:09.449Z,74.30
2018-05-27T14:46:37.125Z,73.90
2018-05-27T14:49:04.902Z,72.10
2018-05-27T14:51:33.376Z,73.50
2018-05-27T14:54:01.070Z,73.40
2018-05-27T14:56:28.748Z,74.10
2018-05-27T14:58:56.384Z,74.70
2018-05-27T15:01:24.052Z,73.50
2018-05-27T15:03:51.686Z,73.40
2018-05-27T15:06:19.370Z,74.80
2018-05-27T15:08:47.029Z,74.80
2018-05-27T15:11:14.717Z,73.80
2018-05-27T15:13:42.359Z,73.80
2018-05-27T15:16:10.031Z,73.90
2018-05-27T15:18:37.763Z,76.80
2018-05-27T15:21:05.403Z,76.60
2018-05-27T15:23:33.122Z,74.50
2018-05-27T15:26:00.798Z,76.10
2018-05-27T15:28:29.282Z,75.40
2018-05-27T15:30:56.912Z,75.30
2018-05-27T15:33:24.583Z,80.70
2018-05-27T15:35:52.253Z,82.40
2018-05-27T15:38:19.960Z,84.40
2018-05-27T15:40:47.604Z,84.20
2018-05-27T15:43:15.272Z,90.80
2018-05-27T15:45:42.904Z,91.20
2018-05-27T15:48:10.592Z,91.70
2018-05-27T15:50:39.001Z,92.00
2018-05-27T15:53:06.675Z,92.00
2018-05-27T15:55:34.335Z,92.00
2018-05-27T15:58:02.042Z,90.90
2018-05-27T16:00:29.684Z,91.80
2018-05-27T16:02:57.377Z,92.20
2018-05-27T16:05:25.072Z,92.30
2018-05-27T16:07:52.732Z,91.70
2018-05-27T16:10:20.382Z,91.00
2018-05-27T16:12:48.832Z,92.60
2018-05-27T16:15:16.473Z,92.50
2018-05-27T16:17:44.183Z,92.00
2018-05-27T16:20:11.824Z,91.90
2018-05-27T16:22:39.460Z,91.10
2018-05-27T16:25:07.934Z,91.10
2018-05-27T16:27:35.574Z,91.10
2018-05-27T16:30:03.300Z,91.40
2018-05-27T16:32:30.973Z,92.20
2018-05-27T16:34:58.704Z,91.40
2018-05-27T16:37:26.363Z,91.30
2018-05-27T16:39:54.029Z,90.90
2018-05-27T16:42:21.669Z,90.60
2018-05-27T16:44:50.101Z,90.20
2018-05-27T16:47:17.765Z,90.20
2018-05-27T16:49:45.437Z,90.70
2018-05-27T16:52:13.060Z,90.10
2018-05-27T16:54:40.768Z,89.80
2018-05-27T16:57:09.172Z,90.30
2018-05-27T16:59:36.852Z,90.30
2018-05-27T17:02:04.573Z,90.30
2018-05-27T17:04:32.264Z,90.30
2018-05-27T17:06:59.929Z,89.70
2018-05-27T17:09:27.628Z,90.00
2018-05-27T17:11:56.071Z,92.40
2018-05-27T17:14:23.709Z,92.40
2018-05-27T17:16:51.389Z,94.80
2018-05-27T17:19:19.012Z,95.20
2018-05-27T17:21:46.685Z,94.50
2018-05-27T17:24:17.605Z,92.10
2018-05-27T17:26:46.040Z,93.80
2018-05-27T17:29:13.688Z,93.80
2018-05-27T17:31:41.381Z,93.40
2018-05-27T17:34:09.033Z,92.70
2018-05-27T17:36:36.757Z,93.00
2018-05-27T17:39:04.459Z,93.30
2018-05-27T17:41:32.900Z,91.10
2018-05-27T17:44:00.533Z,91.00
2018-05-27T17:46:28.224Z,89.10
2018-05-27T17:48:55.906Z,90.30
2018-05-27T17:51:23.592Z,91.30
2018-05-27T17:53:51.233Z,91.00
2018-05-27T17:56:19.660Z,89.20
2018-05-27T17:58:47.304Z,89.90
2018-05-27T18:01:14.978Z,89.70
2018-05-27T18:03:42.673Z,87.60
2018-05-27T18:06:10.404Z,88.80
2018-05-27T18:08:38.067Z,89.70
2018-05-27T18:11:05.711Z,90.30
2018-05-27T18:13:33.388Z,89.50
2018-05-27T18:16:01.021Z,90.10
2018-05-27T18:18:28.697Z,89.20
2018-05-27T18:20:56.328Z,90.60
2018-05-27T18:23:23.993Z,91.30
2018-05-27T18:25:51.629Z,91.50
2018-05-27T18:28:19.305Z,91.40
2018-05-27T18:30:46.981Z,90.50
2018-05-27T18:33:14.700Z,91.30
2018-05-27T18:35:43.124Z,91.30
2018-05-27T18:38:10.835Z,91.30
2018-05-27T18:40:38.473Z,90.90
2018-05-27T18:43:06.154Z,89.10
2018-05-27T18:45:33.809Z,88.30
2018-05-27T18:48:02.270Z,88.20
2018-05-27T18:50:29.903Z,88.20
2018-05-27T18:52:57.572Z,88.90
2018-05-27T18:55:25.200Z,89.40
2018-05-27T18:57:52.836Z,90.10
2018-05-27T19:00:20.500Z,89.40
2018-05-27T19:02:48.172Z,89.70
2018-05-27T19:05:15.856Z,90.10
2018-05-27T19:07:43.504Z,90.10
2018-05-27T19:10:11.188Z,90.00
2018-05-27T19:12:38.820Z,89.80
2018-05-27T19:15:06.530Z,90.50
2018-05-27T19:17:34.186Z,91.30
2018-05-27T19:20:02.634Z,92.20
2018-05-27T19:22:30.276Z,92.20
2018-05-27T19:24:57.945Z,91.80
2018-05-27T19:27:26.439Z,91.10
2018-05-27T19:29:54.104Z,91.10
2018-05-27T19:32:21.732Z,90.80
2018-05-27T19:34:49.421Z,90.80
2018-05-27T19:37:17.062Z,90.50
2018-05-27T19:39:44.751Z,90.80
2018-05-27T19:42:12.438Z,91.10
2018-05-27T19:44:40.104Z,91.20
2018-05-27T19:47:07.738Z,92.50
2018-05-27T19:49:35.364Z,93.50
2018-05-27T19:52:03.041Z,94.70
2018-05-27T19:54:30.673Z,94.60
2018-05-27T19:56:58.341Z,93.70
2018-05-27T19:59:25.978Z,93.70
2018-05-27T20:01:54.412Z,94.30
2018-05-27T20:04:22.053Z,94.30
2018-05-27T20:06:49.732Z,94.50
2018-05-27T20:09:17.393Z,94.80
2018-05-27T20:11:45.090Z,94.80
2018-05-27T20:14:12.738Z,94.40
2018-05-27T20:16:40.409Z,94.40
2018-05-27T20:19:08.815Z,95.50
2018-05-27T20:21:36.491Z,95.50
2018-05-27T20:24:04.137Z,95.70
2018-05-27T20:26:32.576Z,95.70
2018-05-27T20:29:00.215Z,95.80
2018-05-27T20:31:28.661Z,95.50
2018-05-27T20:33:56.296Z,95.50
2018-05-27T20:36:23.934Z,95.20
2018-05-27T20:38:51.596Z,95.40
2018-05-27T20:41:19.260Z,94.30
2018-05-27T20:43:46.961Z,93.80
2018-05-27T20:46:15.425Z,94.80
2018-05-27T20:48:43.112Z,94.70
2018-05-27T20:51:10.749Z,93.50
2018-05-27T20:53:38.456Z,93.00
2018-05-27T20:56:06.097Z,94.90
2018-05-27T20:58:33.772Z,93.40
2018-05-27T21:01:01.412Z,93.90
2018-05-27T21:03:29.845Z,94.40
2018-05-27T21:05:57.480Z,94.40
2018-05-27T21:08:25.148Z,92.50
2018-05-27T21:10:52.788Z,93.40
2018-05-27T21:13:20.483Z,92.50
2018-05-27T21:15:48.237Z,92.70
2018-05-27T21:18:15.926Z,92.80
2018-05-27T21:20:44.396Z,95.10
2018-05-27T21:23:12.053Z,95.10
2018-05-27T21:25:39.721Z,94.10
2018-05-27T21:28:07.373Z,93.50
2018-05-27T21:30:35.045Z,93.10
2018-05-27T21:33:02.680Z,93.50
2018-05-27T21:35:30.352Z,93.50
2018-05-27T21:37:58.004Z,94.30
2018-05-27T21:40:25.688Z,94.60
2018-05-27T21:42:53.321Z,94.00
2018-05-27T21:45:21.000Z,93.60
2018-05-27T21:47:48.649Z,93.50
2018-05-27T21:50:17.092Z,93.20
2018-05-27T21:52:44.745Z,93.20
2018-05-27T21:55:12.414Z,93.20
2018-05-27T21:57:40.052Z,93.40
2018-05-27T22:00:08.505Z,93.90
2018-05-27T22:02:36.169Z,93.90
2018-05-27T22:05:03.853Z,94.20
2018-05-27T22:07:31.521Z,94.60
2018-05-27T22:09:59.152Z,94.70
2018-05-27T22:12:26.832Z,95.70
2018-05-27T22:14:54.452Z,96.50
2018-05-27T22:17:22.124Z,95.70
2018-05-27T22:19:49.792Z,95.30
2018-05-27T22:22:17.518Z,95.00
2018-05-27T22:24:46.000Z,94.40
2018-05-27T22:27:14.461Z,94.20
2018-05-27T22:29:42.097Z,94.20
2018-05-27T22:32:09.764Z,94.20
2018-05-27T22:34:37.396Z,94.10
2018-05-27T22:37:05.066Z,94.00
2018-05-27T22:39:32.709Z,93.90
2018-05-27T22:42:00.381Z,94.20
2018-05-27T22:44:28.009Z,94.00
2018-05-27T22:46:56.440Z,93.90
2018-05-27T22:49:24.124Z,93.90
2018-05-27T22:51:51.752Z,94.30
2018-05-27T22:54:20.188Z,94.20
2018-05-27T22:56:47.840Z,94.20
2018-05-27T22:59:15.568Z,94.20
2018-05-27T23:01:43.228Z,94.10
2018-05-27T23:04:10.892Z,94.00
2018-05-27T23:06:38.532Z,94.00
2018-05-27T23:09:06.225Z,94.10
2018-05-27T23:11:33.857Z,94.20
2018-05-27T23:14:02.316Z,94.30
2018-05-27T23:16:29.952Z,94.30
2018-05-27T23:18:57.620Z,94.20
2018-05-27T23:21:25.260Z,94.50
2018-05-27T23:23:53.712Z,94.30
2018-05-27T23:26:21.348Z,94.30
2018-05-27T23:28:49.077Z,94.30
2018-05-27T23:31:16.735Z,94.30
2018-05-27T23:33:44.420Z,95.20
2018-05-27T23:36:12.157Z,95.60
2018-05-27T23:38:39.764Z,95.70
2018-05-27T23:41:07.396Z,95.40
2018-05-27T23:43:35.063Z,94.90
2018-05-27T23:46:03.485Z,94.70
2018-05-27T23:48:31.174Z,94.70
2018-05-27T23:50:58.801Z,94.90
2018-05-27T23:53:27.252Z,94.80
2018-05-27T23:55:54.921Z,94.70
2018-05-27T23:58:22.565Z,94.70
